createdAt,value
2022-09-20T00:01:28.620Z,101458.50
2022-09-20T00:03:57.892Z,101452.72
2022-09-20T00:06:27.966Z,101455.28
2022-09-20T00:08:55.552Z,101454.56
2022-09-20T00:11:25.558Z,101448.34
2022-09-20T00:13:54.803Z,101443.53
2022-09-20T00:16:36.267Z,101440.84
2022-09-20T00:19:04.351Z,101447.22
2022-09-20T00:21:32.698Z,101443.84
2022-09-20T00:24:00.011Z,101452.72
2022-09-20T00:26:27.771Z,101446.34
2022-09-20T00:28:55.681Z,101443.81
2022-09-20T00:31:23.206Z,101448.31
2022-09-20T00:34:08.817Z,101439.28
2022-09-20T00:36:35.585Z,101440.16
2022-09-20T00:39:03.542Z,101439.44
2022-09-20T00:41:32.189Z,101440.16
2022-09-20T00:44:00.619Z,101445.22
2022-09-20T00:46:38.008Z,101443.56
2022-09-20T00:49:13.710Z,101435.31
2022-09-20T00:51:45.725Z,101445.38
2022-09-20T00:54:20.096Z,101442.25
2022-09-20T00:56:48.421Z,101440.53
2022-09-20T00:59:17.475Z,101448.03
2022-09-20T01:01:48.937Z,101449.72
2022-09-20T01:04:16.322Z,101442.28
2022-09-20T01:06:46.014Z,101448.91
2022-09-20T01:09:12.812Z,101440.41
2022-09-20T01:11:41.058Z,101446.50
2022-09-20T01:14:08.412Z,101443.56
2022-09-20T01:16:37.152Z,101440.88
2022-09-20T01:19:15.139Z,101444.97
2022-09-20T01:21:42.023Z,101449.47
2022-09-20T01:24:32.123Z,101447.78
2022-09-20T01:27:47.812Z,101440.53
2022-09-20T01:30:24.434Z,101433.91
2022-09-20T01:33:17.176Z,101448.19
2022-09-20T01:35:47.353Z,101440.41
2022-09-20T01:38:35.131Z,101448.19
2022-09-20T01:41:13.997Z,101440.53
2022-09-20T01:43:43.111Z,101449.72
2022-09-20T01:46:32.957Z,101454.25
2022-09-20T01:49:21.603Z,101454.69
2022-09-20T01:52:09.411Z,101452.84
2022-09-20T01:55:06.373Z,101446.88
2022-09-20T01:57:54.193Z,101449.75
2022-09-20T02:00:26.490Z,101444.06
2022-09-20T02:03:17.803Z,101437.44
2022-09-20T02:06:15.237Z,101433.75
2022-09-20T02:08:49.816Z,101441.22
2022-09-20T02:11:19.602Z,101432.38
2022-09-20T02:14:06.374Z,101432.38
2022-09-20T02:16:39.853Z,101433.63
2022-09-20T02:19:25.014Z,101430.38
2022-09-20T02:22:11.271Z,101441.25
2022-09-20T02:24:44.017Z,101442.69
2022-09-20T02:27:16.547Z,101443.38
2022-09-20T02:29:52.345Z,101444.97
2022-09-20T02:32:55.198Z,101447.50
2022-09-20T02:35:42.384Z,101447.06
2022-09-20T02:38:15.023Z,101447.91
2022-09-20T02:40:59.610Z,101453.00
2022-09-20T02:43:35.231Z,101443.09
2022-09-20T02:46:20.512Z,101440.00
2022-09-20T02:49:01.950Z,101441.41
2022-09-20T02:51:55.931Z,101438.72
2022-09-20T02:54:50.766Z,101437.03
2022-09-20T02:57:56.085Z,101432.78
2022-09-20T03:00:59.693Z,101435.47
2022-09-20T03:03:35.220Z,101432.78
2022-09-20T03:06:14.722Z,101429.41
2022-09-20T03:08:50.187Z,101430.94
2022-09-20T03:11:32.203Z,101427.41
2022-09-20T03:14:01.787Z,101424.59
2022-09-20T03:16:56.401Z,101420.81
2022-09-20T03:19:47.854Z,101420.94
2022-09-20T03:22:20.350Z,101416.09
2022-09-20T03:24:49.969Z,101412.84
2022-09-20T03:27:16.637Z,101412.56
2022-09-20T03:30:16.100Z,101414.69
2022-09-20T03:33:06.060Z,101409.06
2022-09-20T03:35:56.426Z,101408.22
2022-09-20T03:38:42.881Z,101408.91
2022-09-20T03:41:12.304Z,101400.88
2022-09-20T03:43:57.328Z,101405.53
2022-09-20T03:46:28.201Z,101397.72
2022-09-20T03:49:00.103Z,101400.00
2022-09-20T03:51:41.140Z,101404.66
2022-09-20T03:54:31.211Z,101394.91
2022-09-20T03:57:06.918Z,101399.16
2022-09-20T03:59:58.965Z,101393.78
2022-09-20T04:02:34.657Z,101398.31
2022-09-20T04:05:07.701Z,101393.06
2022-09-20T04:07:59.188Z,101398.72
2022-09-20T04:10:51.577Z,101390.38
2022-09-20T04:13:38.393Z,101383.34
2022-09-20T04:16:13.882Z,101388.53
2022-09-20T04:19:17.973Z,101394.22
2022-09-20T04:21:55.622Z,101394.91
2022-09-20T04:24:28.842Z,101386.44
2022-09-20T04:27:17.709Z,101394.06
2022-09-20T04:29:52.176Z,101388.44
2022-09-20T04:32:31.169Z,101383.63
2022-09-20T04:35:31.791Z,101387.44
2022-09-20T04:38:00.957Z,101380.50
2022-09-20T04:41:09.755Z,101385.28
2022-09-20T04:44:13.648Z,101390.38
2022-09-20T04:47:02.843Z,101387.88
2022-09-20T04:50:07.804Z,101395.34
2022-09-20T04:53:14.727Z,101384.88
2022-09-20T04:56:15.151Z,101392.38
2022-09-20T04:59:05.739Z,101394.06
2022-09-20T05:01:55.652Z,101391.53
2022-09-20T05:05:07.743Z,101390.13
2022-09-20T05:08:01.258Z,101393.94
2022-09-20T05:10:46.307Z,101393.09
2022-09-20T05:13:19.187Z,101393.50
2022-09-20T05:15:52.894Z,101392.09
2022-09-20T05:18:28.594Z,101385.19
2022-09-20T05:21:16.325Z,101383.22
2022-09-20T05:23:51.943Z,101393.63
2022-09-20T05:26:47.599Z,101393.94
2022-09-20T05:29:29.528Z,101394.34
2022-09-20T05:32:12.330Z,101400.44
2022-09-20T05:34:52.133Z,101395.94
2022-09-20T05:37:34.785Z,101394.06
2022-09-20T05:40:23.797Z,101397.19
2022-09-20T05:42:57.110Z,101399.28
2022-09-20T05:45:46.173Z,101402.41
2022-09-20T05:48:27.728Z,101392.94
2022-09-20T05:50:55.774Z,101397.03
2022-09-20T05:53:35.577Z,101398.59
2022-09-20T05:56:24.116Z,101392.09
2022-09-20T05:59:13.046Z,101393.63
2022-09-20T06:01:57.946Z,101398.28
2022-09-20T06:04:52.711Z,101395.75
2022-09-20T06:07:52.081Z,101392.78
2022-09-20T06:10:33.631Z,101393.94
2022-09-20T06:13:20.677Z,101393.91
2022-09-20T06:15:59.780Z,101385.56
2022-09-20T06:18:29.428Z,101392.63
2022-09-20T06:21:09.293Z,101392.22
2022-09-20T06:23:36.919Z,101390.06
2022-09-20T06:26:10.900Z,101392.34
2022-09-20T06:28:43.136Z,101388.53
2022-09-20T06:31:11.321Z,101384.84
2022-09-20T06:33:51.743Z,101383.28
2022-09-20T06:36:42.027Z,101386.38
2022-09-20T06:39:33.468Z,101386.06
2022-09-20T06:42:00.390Z,101393.56
2022-09-20T06:44:27.072Z,101395.13
2022-09-20T06:46:54.410Z,101395.53
2022-09-20T06:49:22.009Z,101400.19
2022-09-20T06:51:52.503Z,101399.38
2022-09-20T06:54:21.758Z,101407.97
2022-09-20T06:56:51.254Z,101406.88
2022-09-20T06:59:17.949Z,101402.63
2022-09-20T07:01:44.917Z,101409.16
2022-09-20T07:04:11.649Z,101412.69
2022-09-20T07:06:38.543Z,101410.47
2022-09-20T07:09:06.111Z,101413.41
2022-09-20T07:11:34.217Z,101416.41
2022-09-20T07:14:01.509Z,101419.38
2022-09-20T07:16:28.544Z,101417.38
2022-09-20T07:18:56.798Z,101419.50
2022-09-20T07:21:24.351Z,101418.94
2022-09-20T07:23:51.487Z,101415.38
2022-09-20T07:26:28.397Z,101416.94
2022-09-20T07:28:55.911Z,101412.94
2022-09-20T07:31:24.408Z,101413.78
2022-09-20T07:33:51.677Z,101410.13
2022-09-20T07:36:18.831Z,101414.28
2022-09-20T07:38:53.220Z,101412.88
2022-09-20T07:41:22.803Z,101413.03
2022-09-20T07:43:50.853Z,101413.63
2022-09-20T07:46:18.178Z,101413.59
2022-09-20T07:48:44.925Z,101410.63
2022-09-20T07:51:13.597Z,101413.69
2022-09-20T07:53:40.585Z,101409.72
2022-09-20T07:56:13.820Z,101410.25
2022-09-20T07:58:41.928Z,101414.94
2022-09-20T08:01:11.270Z,101417.84
2022-09-20T08:03:39.293Z,101420.22
2022-09-20T08:06:08.832Z,101422.31
2022-09-20T08:08:37.298Z,101422.75
2022-09-20T08:11:09.528Z,101427.91
2022-09-20T08:16:30.331Z,101424.94
2022-09-20T08:18:59.778Z,101433.81
2022-09-20T08:21:31.536Z,101429.34
2022-09-20T08:23:59.340Z,101419.19
2022-09-20T08:26:28.379Z,101420.28
2022-09-20T08:28:57.484Z,101415.41
2022-09-20T08:31:26.885Z,101425.81
2022-09-20T08:33:54.718Z,101426.88
2022-09-20T08:36:24.588Z,101428.63
2022-09-20T08:42:13.501Z,101429.66
2022-09-20T08:45:00.003Z,101426.50
2022-09-20T08:47:31.249Z,101432.19
2022-09-20T08:50:00.908Z,101434.28
2022-09-20T08:52:40.807Z,101431.56
2022-09-20T08:55:17.836Z,101434.09
2022-09-20T08:57:49.148Z,101429.34
2022-09-20T09:00:24.228Z,101429.63
2022-09-20T09:02:55.581Z,101425.69
2022-09-20T09:05:34.953Z,101430.69
2022-09-20T09:08:16.806Z,101429.50
2022-09-20T09:10:55.051Z,101438.09
2022-09-20T09:13:53.057Z,101432.47
2022-09-20T09:16:28.648Z,101431.41
2022-09-20T09:19:26.136Z,101435.63
2022-09-20T09:21:58.477Z,101434.00
2022-09-20T09:24:25.986Z,101435.28
2022-09-20T09:27:14.183Z,101437.28
2022-09-20T09:29:55.050Z,101435.84
2022-09-20T09:32:23.790Z,101430.75
2022-09-20T09:34:51.082Z,101435.72
2022-09-20T09:37:30.608Z,101431.31
2022-09-20T09:40:16.729Z,101438.03
2022-09-20T09:42:56.255Z,101440.97
2022-09-20T09:45:38.487Z,101444.16
2022-09-20T09:48:30.645Z,101439.13
2022-09-20T09:51:15.523Z,101439.50
2022-09-20T09:53:43.467Z,101435.25
2022-09-20T09:56:36.022Z,101439.41
2022-09-20T09:59:12.812Z,101437.72
2022-09-20T10:02:19.289Z,101432.09
2022-09-20T10:04:58.009Z,101440.06
2022-09-20T10:08:08.609Z,101432.13
2022-09-20T10:10:51.092Z,101437.03
2022-09-20T10:13:36.026Z,101430.00
2022-09-20T10:16:25.646Z,101442.63
2022-09-20T10:19:19.454Z,101441.03
2022-09-20T10:22:04.656Z,101438.78
2022-09-20T10:24:55.318Z,101434.13
2022-09-20T10:27:50.221Z,101435.75
2022-09-20T10:30:26.091Z,101439.34
2022-09-20T10:33:30.325Z,101434.50
2022-09-20T10:36:06.014Z,101438.72
2022-09-20T10:38:56.524Z,101435.63
2022-09-20T10:41:57.090Z,101430.81
2022-09-20T10:45:04.560Z,101427.00
2022-09-20T10:47:59.138Z,101426.38
2022-09-20T10:50:48.817Z,101420.00
2022-09-20T10:53:33.830Z,101424.41
2022-09-20T10:56:24.133Z,101426.81
2022-09-20T10:59:11.888Z,101420.72
2022-09-20T11:01:43.760Z,101421.44
2022-09-20T11:04:28.391Z,101420.75
2022-09-20T11:07:32.729Z,101418.75
2022-09-20T11:10:17.244Z,101423.34
2022-09-20T11:12:53.829Z,101417.75
2022-09-20T11:15:47.006Z,101419.09
2022-09-20T11:18:23.388Z,101422.81
2022-09-20T11:21:07.534Z,101417.91
2022-09-20T11:23:44.525Z,101410.66
2022-09-20T11:26:47.803Z,101417.91
2022-09-20T11:34:07.792Z,101413.97
2022-09-20T11:40:04.623Z,101413.78
2022-09-20T11:42:36.777Z,101409.81
2022-09-20T11:45:04.107Z,101407.13
2022-09-20T11:47:56.189Z,101409.22
2022-09-20T11:50:47.578Z,101400.78
2022-09-20T11:53:27.685Z,101403.78
2022-09-20T11:56:00.295Z,101399.59
2022-09-20T11:58:27.777Z,101396.28
2022-09-20T12:00:59.084Z,101403.38
2022-09-20T12:03:37.487Z,101399.44
2022-09-20T12:06:06.977Z,101400.44
2022-09-20T12:08:37.417Z,101397.91
2022-09-20T12:11:12.237Z,101402.09
2022-09-20T12:13:41.802Z,101400.94
2022-09-20T12:16:08.523Z,101401.75
2022-09-20T12:18:35.786Z,101401.59
2022-09-20T12:21:15.921Z,101400.34
2022-09-20T12:23:52.348Z,101400.94
2022-09-20T12:26:21.778Z,101393.44
2022-09-20T12:28:51.000Z,101393.88
2022-09-20T12:31:29.217Z,101394.31
2022-09-20T12:34:03.633Z,101398.75
2022-09-20T12:36:37.055Z,101399.44
2022-09-20T12:39:05.972Z,101389.09
2022-09-20T12:41:51.526Z,101383.00
2022-09-20T12:44:32.410Z,101387.53
2022-09-20T12:47:06.004Z,101372.19
2022-09-20T12:50:06.459Z,101384.53
2022-09-20T12:53:03.887Z,101382.09
2022-09-20T12:55:38.483Z,101375.41
2022-09-20T12:58:05.172Z,101382.50
2022-09-20T13:00:40.658Z,101380.91
2022-09-20T13:03:36.303Z,101379.75
2022-09-20T13:06:15.747Z,101373.25
2022-09-20T13:09:09.189Z,101376.81
2022-09-20T13:11:55.946Z,101376.06
2022-09-20T13:14:29.097Z,101375.50
2022-09-20T13:17:01.547Z,101372.09
2022-09-20T13:19:41.287Z,101373.81
2022-09-20T13:22:27.110Z,101368.72
2022-09-20T13:24:58.190Z,101367.88
2022-09-20T13:27:29.848Z,101367.03
2022-09-20T13:30:09.974Z,101369.41
2022-09-20T13:32:41.634Z,101371.56
2022-09-20T13:35:08.626Z,101359.34
2022-09-20T13:37:43.006Z,101362.00
2022-09-20T13:40:19.249Z,101362.47
2022-09-20T13:42:48.495Z,101354.50
2022-09-20T13:45:18.961Z,101348.31
2022-09-20T13:47:56.160Z,101353.03
2022-09-20T13:50:26.831Z,101355.34
2022-09-20T13:52:59.558Z,101354.66
2022-09-20T13:55:38.700Z,101362.94
2022-09-20T13:58:28.985Z,101352.41
2022-09-20T14:01:02.007Z,101356.97
2022-09-20T14:03:30.662Z,101362.84
2022-09-20T14:06:01.856Z,101347.03
2022-09-20T14:08:33.236Z,101355.47
2022-09-20T14:11:08.548Z,101352.31
2022-09-20T14:13:41.929Z,101361.97
2022-09-20T14:16:10.182Z,101353.97
2022-09-20T14:18:40.701Z,101356.38
2022-09-20T14:21:09.177Z,101356.53
2022-09-20T14:23:52.095Z,101352.50
2022-09-20T14:26:25.701Z,101356.22
2022-09-20T14:28:52.649Z,101355.41
2022-09-20T14:31:29.173Z,101355.56
2022-09-20T14:33:59.781Z,101353.53
2022-09-20T14:36:29.773Z,101352.50
2022-09-20T14:39:02.352Z,101353.84
2022-09-20T14:41:38.933Z,101355.19
2022-09-20T14:44:17.967Z,101359.91
2022-09-20T14:46:44.692Z,101355.19
2022-09-20T14:49:26.532Z,101349.78
2022-09-20T14:51:54.400Z,101350.47
2022-09-20T14:54:30.799Z,101348.78
2022-09-20T14:56:58.805Z,101340.50
2022-09-20T14:59:30.101Z,101338.28
2022-09-20T15:02:11.226Z,101338.28
2022-09-20T15:04:40.023Z,101337.94
2022-09-20T15:07:10.911Z,101335.25
2022-09-20T15:09:37.941Z,101337.06
2022-09-20T15:12:13.683Z,101330.31
2022-09-20T15:14:41.460Z,101331.50
2022-09-20T15:17:15.284Z,101322.69
2022-09-20T15:19:42.004Z,101317.25
2022-09-20T15:22:10.419Z,101315.06
2022-09-20T15:24:37.283Z,101308.38
2022-09-20T15:27:04.770Z,101314.31
2022-09-20T15:29:31.673Z,101312.69
2022-09-20T15:31:58.387Z,101302.81
2022-09-20T15:34:25.806Z,101305.59
2022-09-20T15:36:53.985Z,101303.09
2022-09-20T15:39:22.318Z,101300.97
2022-09-20T15:41:52.354Z,101289.09
2022-09-20T15:44:19.248Z,101293.88
2022-09-20T15:46:46.616Z,101308.09
2022-09-20T15:49:13.339Z,101309.16
2022-09-20T15:51:40.055Z,101305.59
2022-09-20T15:54:07.764Z,101299.03
2022-09-20T15:56:37.105Z,101293.75
2022-09-20T15:59:06.635Z,101299.88
2022-09-20T16:01:37.576Z,101299.28
2022-09-20T16:04:10.107Z,101305.72
2022-09-20T16:06:38.038Z,101298.50
2022-09-20T16:09:05.556Z,101305.88
2022-09-20T16:11:32.393Z,101312.53
2022-09-20T16:14:00.617Z,101305.81
2022-09-20T16:16:29.256Z,101302.81
2022-09-20T16:19:14.701Z,101314.19
2022-09-20T16:21:58.830Z,101305.56
2022-09-20T16:24:36.079Z,101309.47
2022-09-20T16:27:06.171Z,101307.28
2022-09-20T16:29:33.422Z,101310.16
2022-09-20T16:32:01.683Z,101308.97
2022-09-20T16:34:33.735Z,101313.03
2022-09-20T16:37:03.556Z,101312.31
2022-09-20T16:39:30.890Z,101316.38
2022-09-20T16:42:03.704Z,101309.22
2022-09-20T16:44:32.420Z,101305.81
2022-09-20T16:46:59.246Z,101306.34
2022-09-20T16:49:28.786Z,101313.25
2022-09-20T16:51:56.122Z,101310.56
2022-09-20T16:54:22.933Z,101303.31
2022-09-20T16:56:51.192Z,101313.63
2022-09-20T16:59:21.485Z,101305.34
2022-09-20T17:01:49.556Z,101311.25
2022-09-20T17:04:18.493Z,101307.38
2022-09-20T17:06:45.913Z,101306.84
2022-09-20T17:09:14.260Z,101310.22
2022-09-20T17:11:45.708Z,101317.31
2022-09-20T17:14:13.310Z,101308.03
2022-09-20T17:16:41.755Z,101317.09
2022-09-20T17:19:11.265Z,101311.22
2022-09-20T17:21:40.468Z,101318.63
2022-09-20T17:24:07.715Z,101315.94
2022-09-20T17:26:38.369Z,101324.19
2022-09-20T17:29:07.649Z,101322.16
2022-09-20T17:31:37.265Z,101318.44
2022-09-20T17:34:07.694Z,101322.00
2022-09-20T17:36:39.178Z,101324.72
2022-09-20T17:39:06.892Z,101325.38
2022-09-20T17:41:33.920Z,101323.34
2022-09-20T17:44:02.770Z,101315.94
2022-09-20T17:46:31.702Z,101317.94
2022-09-20T17:49:01.163Z,101316.25
2022-09-20T17:51:34.718Z,101323.19
2022-09-20T17:54:01.656Z,101327.44
2022-09-20T17:56:30.851Z,101317.97
2022-09-20T17:59:03.238Z,101324.53
2022-09-20T18:01:32.354Z,101329.25
2022-09-20T18:04:00.697Z,101334.16
2022-09-20T18:06:29.731Z,101335.19
2022-09-20T18:08:59.189Z,101339.56
2022-09-20T18:11:31.880Z,101330.97
2022-09-20T18:13:59.907Z,101336.22
2022-09-20T18:16:26.759Z,101336.88
2022-09-20T18:18:53.826Z,101337.56
2022-09-20T18:21:23.652Z,101337.19
2022-09-20T18:23:51.859Z,101337.03
2022-09-20T18:26:23.554Z,101344.44
2022-09-20T18:28:58.189Z,101338.19
2022-09-20T18:31:27.650Z,101341.22
2022-09-20T18:33:55.905Z,101344.59
2022-09-20T18:36:25.643Z,101344.09
2022-09-20T18:38:54.493Z,101334.47
2022-09-20T18:41:23.994Z,101342.25
2022-09-20T18:43:51.245Z,101342.25
2022-09-20T18:46:23.718Z,101342.25
2022-09-20T18:48:59.957Z,101345.66
2022-09-20T18:51:30.297Z,101340.25
2022-09-20T18:53:58.154Z,101344.97
2022-09-20T18:56:27.751Z,101341.22
2022-09-20T18:58:59.958Z,101340.72
2022-09-20T19:01:38.744Z,101343.03
2022-09-20T19:04:20.356Z,101343.53
2022-09-20T19:07:03.485Z,101342.53
2022-09-20T19:09:54.618Z,101339.28
2022-09-20T19:12:44.077Z,101342.56
2022-09-20T19:15:38.651Z,101345.25
2022-09-20T19:18:43.962Z,101342.06
2022-09-20T19:21:35.265Z,101350.75
2022-09-20T19:24:17.163Z,101345.88
2022-09-20T19:26:44.715Z,101346.53
2022-09-20T19:29:19.598Z,101347.91
2022-09-20T19:31:49.404Z,101344.38
2022-09-20T19:34:21.315Z,101344.44
2022-09-20T19:36:57.308Z,101348.50
2022-09-20T19:40:14.907Z,101337.06
2022-09-20T19:43:00.759Z,101340.09
2022-09-20T19:45:31.669Z,101342.50
2022-09-20T19:48:16.851Z,101341.28
2022-09-20T19:50:48.718Z,101341.47
2022-09-20T19:53:17.796Z,101351.63
2022-09-20T19:55:48.395Z,101336.97
2022-09-20T19:58:15.986Z,101342.53
2022-09-20T20:00:47.213Z,101336.28
2022-09-20T20:03:15.539Z,101332.06
2022-09-20T20:05:50.774Z,101340.97
2022-09-20T20:08:54.965Z,101344.91
2022-09-20T20:11:42.368Z,101343.38
2022-09-20T20:14:08.997Z,101341.41
2022-09-20T20:16:44.739Z,101346.31
2022-09-20T20:19:51.333Z,101347.44
2022-09-20T20:22:39.708Z,101348.31
2022-09-20T20:25:22.287Z,101347.59
2022-09-20T20:27:49.042Z,101345.84
2022-09-20T20:30:15.857Z,101337.75
2022-09-20T20:32:42.572Z,101340.44
2022-09-20T20:35:12.362Z,101340.63
2022-09-20T20:37:39.890Z,101342.84
2022-09-20T20:40:08.570Z,101348.19
2022-09-20T20:42:37.083Z,101347.75
2022-09-20T20:45:04.067Z,101348.09
2022-09-20T20:47:30.777Z,101352.66
2022-09-20T20:49:57.573Z,101348.53
2022-09-20T20:52:24.269Z,101349.53
2022-09-20T20:54:51.122Z,101349.88
2022-09-20T20:57:19.011Z,101339.13
2022-09-20T20:59:45.899Z,101345.00
2022-09-20T21:02:12.674Z,101350.59
2022-09-20T21:04:40.759Z,101348.06
2022-09-20T21:07:07.525Z,101343.28
2022-09-20T21:09:34.182Z,101344.09
2022-09-20T21:12:02.023Z,101333.34
2022-09-20T21:14:33.932Z,101337.72
2022-09-20T21:17:03.643Z,101336.81
2022-09-20T21:19:30.303Z,101339.53
2022-09-20T21:21:57.982Z,101347.16
2022-09-20T21:24:27.155Z,101349.84
2022-09-20T21:26:53.913Z,101347.50
2022-09-20T21:29:20.843Z,101346.47
2022-09-20T21:31:47.784Z,101348.03
2022-09-20T21:34:15.856Z,101347.41
2022-09-20T21:36:43.981Z,101354.13
2022-09-20T21:39:11.167Z,101350.47
2022-09-20T21:41:39.334Z,101347.97
2022-09-20T21:44:10.294Z,101351.81
2022-09-20T21:46:41.979Z,101352.88
2022-09-20T21:49:12.339Z,101354.06
2022-09-20T21:51:42.086Z,101353.56
2022-09-20T21:54:09.490Z,101351.44
2022-09-20T21:56:39.716Z,101349.53
2022-09-20T21:59:07.974Z,101347.94
2022-09-20T22:01:40.347Z,101348.22
2022-09-20T22:04:09.880Z,101347.09
2022-09-20T22:06:39.233Z,101345.44
2022-09-20T22:09:16.956Z,101343.22
2022-09-20T22:11:46.556Z,101334.78
2022-09-20T22:14:14.849Z,101339.63
2022-09-20T22:16:43.639Z,101339.06
2022-09-20T22:19:13.001Z,101333.69
2022-09-20T22:21:42.282Z,101344.78
2022-09-20T22:24:10.766Z,101351.59
2022-09-20T22:26:42.911Z,101338.75
2022-09-20T22:29:10.387Z,101348.53
2022-09-20T22:31:46.104Z,101341.78
2022-09-20T22:34:18.602Z,101345.16
2022-09-20T22:36:47.796Z,101348.63
2022-09-20T22:39:15.703Z,101347.38
2022-09-20T22:41:43.176Z,101350.44
2022-09-20T22:44:10.786Z,101344.78
2022-09-20T22:46:38.941Z,101340.09
2022-09-20T22:49:06.326Z,101342.09
2022-09-20T22:51:33.550Z,101337.16
2022-09-20T22:54:04.381Z,101331.09
2022-09-20T22:56:31.756Z,101335.31
2022-09-20T22:59:11.136Z,101339.00
2022-09-20T23:01:42.290Z,101336.84
2022-09-20T23:04:14.348Z,101334.63
2022-09-20T23:06:43.672Z,101329.84
2022-09-20T23:09:13.374Z,101328.16
2022-09-20T23:11:42.160Z,101322.53
2022-09-20T23:14:11.971Z,101322.69
2022-09-20T23:16:39.137Z,101325.16
2022-09-20T23:19:07.465Z,101322.75
2022-09-20T23:21:36.195Z,101325.75
2022-09-20T23:24:05.018Z,101325.44
2022-09-20T23:26:34.008Z,101317.84
2022-09-20T23:29:08.345Z,101317.00
2022-09-20T23:31:37.069Z,101322.03
2022-09-20T23:34:06.541Z,101317.13
2022-09-20T23:36:36.067Z,101317.38
2022-09-20T23:39:02.966Z,101320.38
2022-09-20T23:41:30.315Z,101317.38
2022-09-20T23:43:57.178Z,101317.38
2022-09-20T23:46:26.241Z,101318.84
2022-09-20T23:48:53.520Z,101318.84
2022-09-20T23:51:24.024Z,101319.91
2022-09-20T23:53:52.849Z,101322.59
2022-09-20T23:56:21.193Z,101324.19
2022-09-20T23:58:48.710Z,101323.34
